Time;durP1;ratioP1;P1;durP2;ratioP2;P2;SDS_P1;SDS_P2;PMS_P1;PMS_P2;Temp;Humidity;BMP_temperature;BMP_pressure;BME280_temperature;BME280_humidity;BME280_pressure;Samples;Min_cycle;Max_cycle;Signal;HPM_P1;HPM_P2
2023/12/02 00:02:21;;;;;;;1.70;1.60;;;2.30;99.90;;;;;;5014545;28;20084;-88
2023/12/02 00:04:47;;;;;;;1.77;1.67;;;2.10;99.90;;;;;;5000371;28;20049;-89
2023/12/02 00:07:13;;;;;;;1.70;1.60;;;2.30;99.90;;;;;;4988885;28;20044;-89
2023/12/02 00:09:38;;;;;;;1.80;1.70;;;2.10;99.90;;;;;;5002008;28;20111;-90
2023/12/02 00:12:04;;;;;;;1.70;1.60;;;2.30;99.90;;;;;;5006719;28;20560;-89
2023/12/02 00:14:30;;;;;;;1.70;1.60;;;2.20;99.90;;;;;;5002713;28;20438;-90
2023/12/02 00:16:56;;;;;;;1.85;1.75;;;2.30;99.90;;;;;;5002485;28;20056;-91
2023/12/02 00:19:22;;;;;;;1.90;1.80;;;2.10;99.90;;;;;;4995805;28;20038;-89
2023/12/02 00:21:49;;;;;;;1.80;1.70;;;2.40;99.90;;;;;;5006635;28;20085;-91
2023/12/02 00:24:14;;;;;;;1.80;1.70;;;2.30;99.90;;;;;;4991973;28;20085;-90
2023/12/02 00:26:40;;;;;;;1.80;1.70;;;2.10;99.90;;;;;;4998482;28;20065;-90
2023/12/02 00:29:06;;;;;;;1.70;1.60;;;2.10;99.90;;;;;;5033227;28;20025;-90
2023/12/02 00:31:31;;;;;;;1.77;1.67;;;2.20;99.90;;;;;;4997905;28;20142;-90
2023/12/02 00:33:57;;;;;;;1.67;1.58;;;2.10;99.90;;;;;;4993505;28;20021;-90
2023/12/02 00:36:23;;;;;;;1.70;1.60;;;2.00;99.90;;;;;;5007571;28;20042;-90
2023/12/02 00:38:49;;;;;;;1.80;1.70;;;2.10;99.90;;;;;;5000659;28;20050;-88
2023/12/02 00:41:15;;;;;;;1.90;1.80;;;2.10;99.90;;;;;;5025775;28;20065;-91
2023/12/02 00:43:41;;;;;;;1.80;1.70;;;2.00;99.90;;;;;;5013436;28;20085;-91
2023/12/02 00:46:07;;;;;;;1.70;1.60;;;2.10;99.90;;;;;;5016422;28;20053;-91
2023/12/02 00:48:33;;;;;;;1.80;1.70;;;1.90;99.90;;;;;;5017425;28;20056;-90
2023/12/02 00:50:58;;;;;;;1.80;1.70;;;1.90;99.90;;;;;;5027642;28;20124;-90
2023/12/02 00:53:25;;;;;;;1.75;1.65;;;1.90;99.90;;;;;;5023521;28;20046;-90
2023/12/02 00:55:53;;;;;;;1.80;1.70;;;2.00;99.90;;;;;;5004365;28;20049;-89
2023/12/02 00:58:18;;;;;;;1.80;1.70;;;1.90;99.90;;;;;;5010670;28;20049;-90
2023/12/02 01:00:44;;;;;;;1.80;1.70;;;2.00;99.90;;;;;;5007812;28;20041;-89
2023/12/02 01:03:10;;;;;;;1.70;1.60;;;1.80;99.90;;;;;;5015227;28;20184;-90
2023/12/02 01:05:35;;;;;;;1.83;1.73;;;1.90;99.90;;;;;;4998527;28;20213;-90
2023/12/02 01:08:01;;;;;;;1.73;1.63;;;1.60;99.90;;;;;;5021768;28;20047;-90
2023/12/02 01:10:27;;;;;;;1.90;1.80;;;1.60;99.90;;;;;;5005064;28;20169;-91
2023/12/02 01:12:52;;;;;;;1.80;1.70;;;1.70;99.90;;;;;;4986717;28;20132;-91
2023/12/02 01:15:18;;;;;;;1.90;1.80;;;1.60;99.90;;;;;;4997732;28;20509;-90
2023/12/02 01:17:47;;;;;;;1.70;1.60;;;1.60;99.90;;;;;;5015266;28;20049;-90
2023/12/02 01:20:12;;;;;;;1.88;1.77;;;1.70;99.90;;;;;;5020418;28;20037;-91
2023/12/02 01:22:38;;;;;;;1.98;1.88;;;1.50;99.90;;;;;;5009905;28;20049;-90
2023/12/02 01:25:07;;;;;;;1.90;1.80;;;1.40;99.90;;;;;;5020743;28;20041;-91
2023/12/02 01:27:33;;;;;;;1.90;1.80;;;1.50;99.90;;;;;;5002640;28;20136;-91
2023/12/02 01:30:00;;;;;;;1.90;1.80;;;1.50;99.90;;;;;;5010572;28;20125;-90
2023/12/02 01:32:25;;;;;;;1.90;1.80;;;1.70;99.90;;;;;;5012922;28;20076;-91
2023/12/02 01:34:51;;;;;;;2.00;1.90;;;1.70;99.90;;;;;;5004959;28;20041;-91
2023/12/02 01:37:17;;;;;;;1.90;1.80;;;1.30;99.90;;;;;;5007526;28;20049;-91
2023/12/02 01:39:42;;;;;;;1.90;1.80;;;1.30;99.90;;;;;;5009989;28;20107;-92
2023/12/02 01:42:08;;;;;;;1.80;1.70;;;1.50;99.90;;;;;;4997603;28;20041;-91
2023/12/02 01:44:34;;;;;;;1.80;1.70;;;1.40;99.90;;;;;;4985748;28;20068;-90
2023/12/02 01:47:00;;;;;;;1.80;1.70;;;1.30;99.90;;;;;;4995739;28;20053;-91
2023/12/02 01:49:27;;;;;;;1.70;1.60;;;1.40;99.90;;;;;;5013367;28;20072;-91
2023/12/02 01:51:53;;;;;;;1.80;1.70;;;1.60;99.90;;;;;;5001296;28;20123;-90
2023/12/02 01:54:20;;;;;;;1.90;1.80;;;1.50;99.90;;;;;;5008949;28;20917;-90
2023/12/02 01:56:46;;;;;;;1.95;1.85;;;1.40;99.90;;;;;;5012537;28;20073;-91
2023/12/02 01:59:13;;;;;;;1.88;1.77;;;1.60;99.90;;;;;;5010637;28;20057;-91
2023/12/02 02:01:39;;;;;;;1.70;1.60;;;1.50;99.90;;;;;;5025900;28;20060;-91
2023/12/02 02:04:05;;;;;;;1.70;1.60;;;1.60;99.90;;;;;;4995879;28;20049;-91
2023/12/02 02:06:31;;;;;;;1.70;1.60;;;1.40;99.90;;;;;;5010984;28;20125;-90
2023/12/02 02:08:56;;;;;;;1.70;1.60;;;1.30;99.90;;;;;;5013283;28;20048;-89
2023/12/02 02:11:22;;;;;;;1.75;1.65;;;1.50;99.90;;;;;;5016475;28;20034;-90
2023/12/02 02:13:49;;;;;;;1.70;1.60;;;1.40;99.90;;;;;;5008360;28;20120;-91
2023/12/02 02:16:15;;;;;;;1.80;1.70;;;1.50;99.90;;;;;;4998114;28;20188;-91
2023/12/02 02:18:41;;;;;;;1.90;1.80;;;1.40;99.90;;;;;;4991794;28;20041;-91
2023/12/02 02:21:06;;;;;;;1.80;1.70;;;1.10;99.90;;;;;;5026465;28;20045;-88
2023/12/02 02:23:32;;;;;;;1.90;1.80;;;1.30;99.90;;;;;;4994602;28;20095;-90
2023/12/02 02:25:58;;;;;;;1.90;1.80;;;1.30;99.90;;;;;;4998974;28;20045;-90
2023/12/02 02:28:28;;;;;;;1.90;1.80;;;1.10;99.90;;;;;;5011926;28;20138;-90
2023/12/02 02:30:54;;;;;;;1.90;1.80;;;1.50;99.90;;;;;;4994360;28;20045;-90
2023/12/02 02:33:20;;;;;;;1.90;1.80;;;1.30;99.90;;;;;;5008142;28;20046;-90
2023/12/02 02:35:47;;;;;;;2.00;1.90;;;1.60;99.90;;;;;;5022471;28;20041;-90
2023/12/02 02:38:14;;;;;;;1.90;1.80;;;1.60;99.90;;;;;;4997770;28;20054;-91
2023/12/02 02:40:40;;;;;;;1.90;1.80;;;1.60;99.90;;;;;;4995585;28;20106;-90
2023/12/02 02:43:06;;;;;;;1.90;1.80;;;1.40;99.90;;;;;;5004557;28;20042;-91
2023/12/02 02:45:32;;;;;;;1.90;1.80;;;1.50;99.90;;;;;;5011825;28;20045;-91
2023/12/02 02:47:58;;;;;;;1.95;1.85;;;1.70;99.90;;;;;;5000895;28;20067;-91
2023/12/02 02:50:24;;;;;;;1.90;1.80;;;1.60;99.90;;;;;;5005245;28;20922;-90
2023/12/02 02:52:50;;;;;;;1.90;1.80;;;1.60;99.90;;;;;;5012175;28;20076;-89
2023/12/02 02:55:16;;;;;;;1.90;1.80;;;1.70;99.90;;;;;;5008539;28;20491;-91
2023/12/02 02:57:41;;;;;;;2.00;1.90;;;1.70;99.90;;;;;;5012849;28;20076;-90
2023/12/02 03:00:11;;;;;;;1.80;1.70;;;1.40;99.90;;;;;;5012933;28;20037;-90
2023/12/02 03:02:37;;;;;;;1.80;1.70;;;1.70;99.90;;;;;;5011314;28;20417;-90
2023/12/02 03:05:04;;;;;;;2.00;1.90;;;1.60;99.90;;;;;;5014090;28;20109;-91
2023/12/02 03:07:31;;;;;;;1.90;1.80;;;1.60;99.90;;;;;;4993945;28;20681;-91
2023/12/02 03:09:57;;;;;;;1.90;1.80;;;1.40;99.90;;;;;;4997506;28;20107;-90
2023/12/02 03:12:26;;;;;;;1.90;1.80;;;1.70;99.90;;;;;;5020016;28;20053;-89
2023/12/02 03:14:54;;;;;;;1.90;1.80;;;1.70;99.90;;;;;;5002522;28;20124;-90
2023/12/02 03:17:20;;;;;;;1.80;1.70;;;1.50;99.90;;;;;;5012088;28;20371;-90
2023/12/02 03:19:47;;;;;;;1.80;1.70;;;1.60;99.90;;;;;;5013478;28;20049;-90
2023/12/02 03:22:13;;;;;;;1.80;1.70;;;1.60;99.90;;;;;;5009271;28;20136;-90
2023/12/02 03:24:39;;;;;;;1.85;1.75;;;1.80;99.90;;;;;;4998606;28;20081;-90
2023/12/02 03:27:05;;;;;;;1.80;1.70;;;1.80;99.90;;;;;;5012661;28;22012;-90
2023/12/02 03:29:31;;;;;;;1.90;1.80;;;1.80;99.90;;;;;;4997742;28;20095;-89
2023/12/02 03:31:56;;;;;;;2.00;1.90;;;1.90;99.90;;;;;;5007573;28;20045;-90
2023/12/02 03:34:22;;;;;;;1.90;1.80;;;1.60;99.90;;;;;;5012508;28;20099;-90
2023/12/02 03:36:48;;;;;;;1.90;1.80;;;1.70;99.90;;;;;;5011905;28;20063;-90
2023/12/02 03:39:13;;;;;;;1.90;1.80;;;1.50;99.90;;;;;;4998783;28;20045;-90
2023/12/02 03:41:42;;;;;;;1.90;1.80;;;1.70;99.90;;;;;;4997788;28;20046;-90
2023/12/02 03:44:09;;;;;;;1.90;1.80;;;1.80;99.90;;;;;;5027842;28;20592;-88
2023/12/02 03:46:35;;;;;;;2.00;1.90;;;1.90;99.90;;;;;;4999219;28;20045;-89
2023/12/02 03:49:02;;;;;;;1.83;1.73;;;1.80;99.90;;;;;;5012774;28;20049;-89
2023/12/02 03:51:28;;;;;;;1.90;1.80;;;1.60;99.90;;;;;;4995298;28;20045;-89
2023/12/02 03:53:54;;;;;;;1.80;1.70;;;1.70;99.90;;;;;;5012578;28;20045;-89
2023/12/02 03:56:20;;;;;;;1.90;1.80;;;1.50;99.90;;;;;;4997498;28;20128;-88
2023/12/02 03:58:46;;;;;;;1.90;1.80;;;1.80;99.90;;;;;;5011510;28;20051;-89
2023/12/02 04:01:13;;;;;;;1.80;1.70;;;1.70;99.90;;;;;;5005858;28;20099;-89
2023/12/02 04:03:38;;;;;;;1.80;1.70;;;1.80;99.90;;;;;;5011349;28;20657;-90
2023/12/02 04:06:05;;;;;;;1.80;1.70;;;1.50;99.90;;;;;;4995620;28;20037;-89
2023/12/02 04:08:33;;;;;;;1.80;1.70;;;1.70;99.90;;;;;;4998269;28;20494;-90
2023/12/02 04:10:58;;;;;;;1.70;1.60;;;1.60;99.90;;;;;;5016307;28;20045;-89
2023/12/02 04:13:25;;;;;;;1.80;1.70;;;1.50;99.90;;;;;;4998221;28;20076;-89
2023/12/02 04:15:51;;;;;;;1.80;1.70;;;1.60;99.90;;;;;;5012793;28;20045;-89
2023/12/02 04:18:17;;;;;;;1.80;1.70;;;1.60;99.90;;;;;;5003900;28;20345;-89
2023/12/02 04:20:43;;;;;;;1.90;1.80;;;1.80;99.90;;;;;;4985869;28;20116;-89
2023/12/02 04:23:08;;;;;;;1.90;1.80;;;1.90;99.90;;;;;;5002298;28;20045;-89
2023/12/02 04:25:36;;;;;;;1.80;1.70;;;1.80;99.90;;;;;;5013418;28;20118;-89
2023/12/02 04:28:02;;;;;;;1.90;1.80;;;1.50;99.90;;;;;;5014353;28;20053;-88
2023/12/02 04:30:27;;;;;;;1.80;1.70;;;1.70;99.90;;;;;;5018222;28;20042;-89
2023/12/02 04:32:53;;;;;;;1.90;1.80;;;1.70;99.90;;;;;;4996508;28;20618;-89
2023/12/02 04:35:19;;;;;;;1.90;1.80;;;1.80;99.90;;;;;;5013440;28;20046;-89
2023/12/02 04:37:45;;;;;;;2.42;2.33;;;1.50;99.90;;;;;;5013121;28;20078;-89
2023/12/02 04:40:11;;;;;;;1.80;1.70;;;1.70;99.90;;;;;;4998094;28;21319;-89
2023/12/02 04:42:40;;;;;;;1.90;1.80;;;1.70;99.90;;;;;;5012054;28;20053;-89
2023/12/02 04:45:08;;;;;;;2.00;1.90;;;1.60;99.90;;;;;;5012206;28;20557;-89
2023/12/02 04:47:36;;;;;;;1.80;1.70;;;1.50;99.90;;;;;;5011940;28;20056;-89
2023/12/02 04:50:03;;;;;;;1.88;1.77;;;1.70;99.90;;;;;;5009955;28;20041;-88
2023/12/02 04:52:29;;;;;;;1.90;1.80;;;1.70;99.90;;;;;;4999791;28;20045;-88
2023/12/02 04:54:55;;;;;;;1.90;1.80;;;1.50;99.90;;;;;;4997269;28;20050;-88
2023/12/02 04:57:21;;;;;;;1.98;1.88;;;1.70;99.90;;;;;;5025908;28;20038;-88
2023/12/02 04:59:47;;;;;;;1.90;1.80;;;1.70;99.90;;;;;;5013045;28;20041;-88
2023/12/02 05:02:13;;;;;;;1.90;1.80;;;1.80;99.90;;;;;;5010273;28;20490;-88
2023/12/02 05:04:41;;;;;;;1.90;1.80;;;1.50;99.90;;;;;;5027431;28;20053;-88
2023/12/02 05:07:07;;;;;;;1.80;1.70;;;1.90;99.90;;;;;;5000767;28;20201;-88
2023/12/02 05:09:33;;;;;;;1.90;1.80;;;1.90;99.90;;;;;;5021126;28;20045;-89
2023/12/02 05:11:58;;;;;;;1.90;1.80;;;1.60;99.90;;;;;;5033784;28;20064;-88
2023/12/02 05:14:24;;;;;;;1.80;1.70;;;1.60;99.90;;;;;;5033392;28;20123;-87
2023/12/02 05:16:49;;;;;;;1.90;1.80;;;1.70;99.90;;;;;;5034354;28;20044;-89
2023/12/02 05:19:15;;;;;;;1.90;1.80;;;2.00;99.90;;;;;;5048160;28;20502;-87
2023/12/02 05:21:41;;;;;;;1.90;1.80;;;1.90;99.90;;;;;;5028409;28;20041;-87
2023/12/02 05:24:08;;;;;;;1.90;1.80;;;1.80;99.90;;;;;;5032446;28;20052;-87
2023/12/02 05:26:33;;;;;;;1.92;1.83;;;1.80;99.90;;;;;;5029901;28;20561;-88
2023/12/02 05:29:05;;;;;;;2.00;1.90;;;2.20;99.90;;;;;;5033984;28;20045;-87
2023/12/02 05:31:31;;;;;;;1.90;1.80;;;1.90;99.90;;;;;;5032509;28;20060;-87
2023/12/02 05:33:58;;;;;;;2.00;1.90;;;2.10;99.90;;;;;;5027654;28;20037;-87
2023/12/02 05:36:24;;;;;;;1.85;1.75;;;1.80;99.90;;;;;;5023888;28;20103;-86
2023/12/02 05:38:49;;;;;;;1.90;1.80;;;1.90;99.90;;;;;;5014978;28;20127;-87
2023/12/02 05:41:15;;;;;;;2.00;1.90;;;1.80;99.90;;;;;;4993895;28;20084;-87
2023/12/02 05:43:41;;;;;;;1.90;1.80;;;2.20;99.90;;;;;;5012992;28;20168;-87
2023/12/02 05:46:07;;;;;;;1.90;1.80;;;1.90;99.90;;;;;;4998913;28;20491;-87
2023/12/02 05:48:32;;;;;;;1.90;1.80;;;1.80;99.90;;;;;;5010820;28;20041;-86
2023/12/02 05:51:02;;;;;;;2.00;1.90;;;2.10;99.90;;;;;;5013904;28;20034;-87
2023/12/02 05:53:27;;;;;;;2.00;1.90;;;2.10;99.90;;;;;;5011571;28;20060;-86
2023/12/02 05:55:53;;;;;;;1.90;1.80;;;1.90;99.90;;;;;;4998013;28;20046;-86
2023/12/02 05:58:18;;;;;;;2.30;2.10;;;1.90;99.90;;;;;;4992239;28;20077;-86
2023/12/02 06:00:44;;;;;;;1.90;1.80;;;1.80;99.90;;;;;;4999686;28;20050;-85
2023/12/02 06:03:10;;;;;;;1.90;1.80;;;1.80;99.90;;;;;;4995318;28;20106;-86
2023/12/02 06:05:35;;;;;;;1.90;1.80;;;2.00;99.90;;;;;;4990754;28;20049;-86
2023/12/02 06:08:01;;;;;;;2.00;1.90;;;2.10;99.90;;;;;;4996745;28;20038;-86
2023/12/02 06:10:26;;;;;;;1.90;1.80;;;2.20;99.90;;;;;;5016045;28;20129;-85
2023/12/02 06:12:52;;;;;;;1.90;1.80;;;2.00;99.90;;;;;;5006273;28;20084;-86
2023/12/02 06:15:19;;;;;;;2.00;1.90;;;2.30;99.90;;;;;;5008244;28;20046;-86
2023/12/02 06:17:45;;;;;;;1.88;1.77;;;2.30;99.90;;;;;;4996104;28;20061;-86
2023/12/02 06:20:11;;;;;;;1.90;1.80;;;2.20;99.90;;;;;;4997349;28;20052;-86
2023/12/02 06:22:37;;;;;;;1.92;1.83;;;2.30;99.90;;;;;;5001154;28;20387;-86
2023/12/02 06:25:04;;;;;;;2.00;1.90;;;1.90;99.90;;;;;;4985278;28;20072;-86
2023/12/02 06:27:29;;;;;;;1.92;1.83;;;2.20;99.90;;;;;;5004013;28;20389;-85
2023/12/02 06:29:55;;;;;;;1.90;1.80;;;2.20;99.90;;;;;;4999756;28;20132;-85
2023/12/02 06:32:20;;;;;;;2.00;1.90;;;2.30;99.90;;;;;;5007653;28;20392;-85
2023/12/02 06:34:46;;;;;;;2.00;1.90;;;2.10;99.90;;;;;;4989973;28;20442;-85
2023/12/02 06:37:12;;;;;;;1.90;1.80;;;2.20;99.90;;;;;;4992622;28;20572;-85
2023/12/02 06:39:37;;;;;;;2.10;2.00;;;1.90;99.90;;;;;;4991335;28;20057;-86
2023/12/02 06:42:04;;;;;;;2.00;1.90;;;2.20;99.90;;;;;;5005575;28;20053;-85
2023/12/02 06:44:29;;;;;;;1.90;1.80;;;2.10;99.90;;;;;;4999437;28;20492;-85
2023/12/02 06:46:55;;;;;;;1.90;1.80;;;2.30;99.90;;;;;;4999379;28;20137;-85
2023/12/02 06:49:21;;;;;;;1.90;1.80;;;2.30;99.90;;;;;;4989120;28;20719;-85
2023/12/02 06:51:46;;;;;;;2.00;1.90;;;2.40;99.90;;;;;;5004333;28;20426;-85
2023/12/02 06:54:12;;;;;;;2.38;2.28;;;2.30;99.90;;;;;;4998390;28;20060;-86
2023/12/02 06:56:37;;;;;;;2.20;2.10;;;1.90;99.90;;;;;;4997008;28;20038;-87
2023/12/02 06:59:03;;;;;;;2.00;1.90;;;1.90;99.90;;;;;;4995115;28;20049;-86
2023/12/02 07:01:30;;;;;;;1.98;1.88;;;1.90;99.90;;;;;;5010203;28;20053;-86
2023/12/02 07:03:58;;;;;;;1.90;1.80;;;2.10;99.90;;;;;;4983868;28;20045;-85
2023/12/02 07:06:25;;;;;;;2.00;1.90;;;2.20;99.90;;;;;;4984088;28;20073;-85
2023/12/02 07:08:51;;;;;;;2.10;2.00;;;1.90;99.90;;;;;;5015083;28;20566;-85
2023/12/02 07:11:18;;;;;;;2.00;1.90;;;2.10;99.90;;;;;;5007014;28;20104;-85
2023/12/02 07:13:44;;;;;;;2.10;2.00;;;2.30;99.90;;;;;;5001517;28;20054;-84
2023/12/02 07:16:10;;;;;;;2.10;2.00;;;2.00;99.90;;;;;;5022872;28;20047;-85
2023/12/02 07:18:36;;;;;;;2.00;1.90;;;2.30;99.90;;;;;;5001194;28;20080;-85
2023/12/02 07:21:02;;;;;;;2.10;2.00;;;2.20;99.90;;;;;;4995312;28;20123;-89
2023/12/02 07:23:28;;;;;;;2.30;2.20;;;2.00;99.90;;;;;;5007133;28;20034;-85
2023/12/02 07:25:55;;;;;;;2.30;2.20;;;2.00;99.90;;;;;;5008852;28;20757;-85
2023/12/02 07:28:21;;;;;;;2.40;2.30;;;2.10;99.90;;;;;;4990992;28;20507;-85
2023/12/02 07:30:49;;;;;;;2.40;2.30;;;1.90;99.90;;;;;;4991880;28;20046;-85
2023/12/02 07:33:16;;;;;;;2.20;2.10;;;2.00;99.90;;;;;;4976125;28;20061;-84
2023/12/02 07:35:42;;;;;;;2.20;2.10;;;2.20;99.90;;;;;;4996143;28;20076;-85
2023/12/02 07:38:09;;;;;;;2.10;2.00;;;2.30;99.90;;;;;;4999853;28;20041;-84
2023/12/02 07:40:35;;;;;;;2.20;2.10;;;2.30;99.90;;;;;;5003248;28;20092;-85
2023/12/02 07:43:02;;;;;;;2.10;2.00;;;2.40;99.90;;;;;;5005287;28;20103;-84
2023/12/02 07:45:27;;;;;;;2.20;2.10;;;2.10;99.90;;;;;;5001104;28;20120;-85
2023/12/02 07:47:53;;;;;;;2.00;1.90;;;2.10;99.90;;;;;;5000392;28;20132;-85
2023/12/02 07:50:19;;;;;;;2.20;2.10;;;2.20;99.90;;;;;;5004169;28;20107;-85
2023/12/02 07:52:46;;;;;;;2.20;2.10;;;2.00;99.90;;;;;;5002499;28;20052;-84
2023/12/02 07:55:12;;;;;;;2.15;2.05;;;2.10;99.90;;;;;;4997800;28;20045;-89
2023/12/02 07:57:38;;;;;;;2.30;2.20;;;2.30;99.90;;;;;;5002975;28;20070;-85
2023/12/02 08:00:04;;;;;;;2.30;2.20;;;2.30;99.90;;;;;;4995359;28;20050;-84
2023/12/02 08:02:30;;;;;;;2.00;1.90;;;2.20;99.90;;;;;;5001546;28;20108;-83
2023/12/02 08:04:57;;;;;;;2.20;2.10;;;2.20;99.90;;;;;;4993686;28;20144;-83
2023/12/02 08:07:23;;;;;;;2.30;2.20;;;2.10;99.90;;;;;;5008580;28;20064;-86
2023/12/02 08:09:48;;;;;;;2.20;2.10;;;2.40;99.90;;;;;;4997817;28;20566;-84
2023/12/02 08:12:15;;;;;;;2.30;2.20;;;2.40;99.90;;;;;;5002499;28;20052;-85
2023/12/02 08:14:41;;;;;;;2.30;2.20;;;2.40;99.90;;;;;;5001488;28;20046;-84
2023/12/02 08:17:07;;;;;;;2.28;2.17;;;2.10;99.90;;;;;;4993622;28;20042;-84
2023/12/02 08:19:33;;;;;;;2.20;2.10;;;2.20;99.90;;;;;;4996192;28;20499;-83
2023/12/02 08:21:59;;;;;;;2.00;1.90;;;2.40;99.90;;;;;;5021174;28;20045;-83
2023/12/02 08:24:25;;;;;;;2.10;2.00;;;2.50;99.90;;;;;;5001381;28;20131;-84
2023/12/02 08:26:50;;;;;;;2.10;2.00;;;2.70;99.90;;;;;;5003622;28;20054;-84
2023/12/02 08:29:16;;;;;;;2.10;2.00;;;2.30;99.90;;;;;;5001383;28;20467;-84
2023/12/02 08:31:42;;;;;;;2.10;2.00;;;2.40;99.90;;;;;;5010858;28;20597;-84
2023/12/02 08:34:07;;;;;;;2.00;1.90;;;2.30;99.90;;;;;;5011298;28;20057;-88
2023/12/02 08:36:33;;;;;;;2.20;2.10;;;2.60;99.90;;;;;;5010590;28;20574;-84
2023/12/02 08:38:59;;;;;;;2.03;1.92;;;2.70;99.90;;;;;;5000860;28;20049;-87
2023/12/02 08:41:24;;;;;;;2.10;2.00;;;2.60;99.90;;;;;;4998390;28;20144;-88
2023/12/02 08:43:50;;;;;;;2.10;2.00;;;2.70;99.90;;;;;;4979517;28;20038;-84
2023/12/02 08:46:19;;;;;;;2.00;1.90;;;2.70;99.90;;;;;;5012852;28;20042;-85
2023/12/02 08:48:45;;;;;;;2.00;1.90;;;2.70;99.90;;;;;;4983254;28;20042;-83
2023/12/02 08:51:11;;;;;;;1.90;1.80;;;2.80;99.90;;;;;;4996808;28;20937;-83
2023/12/02 08:53:37;;;;;;;2.00;1.90;;;2.60;99.90;;;;;;4991352;28;20045;-84
2023/12/02 08:56:03;;;;;;;2.00;1.90;;;2.60;99.90;;;;;;5021593;28;20042;-84
2023/12/02 08:58:29;;;;;;;2.00;1.90;;;2.70;99.90;;;;;;5018930;28;20041;-83
2023/12/02 09:00:55;;;;;;;1.85;1.75;;;2.70;99.90;;;;;;5004537;28;21541;-82
2023/12/02 09:03:22;;;;;;;1.80;1.70;;;2.60;99.90;;;;;;5003995;28;20045;-83
2023/12/02 09:05:49;;;;;;;2.00;1.90;;;2.60;99.90;;;;;;5001418;28;20507;-83
2023/12/02 09:08:15;;;;;;;2.00;1.90;;;2.70;99.90;;;;;;4988376;28;20049;-83
2023/12/02 09:10:41;;;;;;;2.00;1.90;;;2.90;99.90;;;;;;5000155;28;20046;-83
2023/12/02 09:13:40;;;;;;;2.00;1.90;;;2.70;99.90;;;;;;5010080;28;20041;-83
2023/12/02 09:16:27;;;;;;;2.00;1.90;;;2.70;99.90;;;;;;5002589;28;20049;-83
2023/12/02 09:18:53;;;;;;;1.90;1.80;;;2.80;99.90;;;;;;5010053;28;20123;-87
2023/12/02 09:21:42;;;;;;;2.00;1.90;;;2.80;99.90;;;;;;5003604;28;20638;-83
2023/12/02 09:24:34;;;;;;;2.00;1.90;;;2.90;99.90;;;;;;5018495;28;20055;-84
2023/12/02 09:27:01;;;;;;;1.90;1.80;;;2.80;99.90;;;;;;5008928;28;20089;-83
2023/12/02 09:29:40;;;;;;;2.10;2.00;;;2.90;99.90;;;;;;5016406;28;20049;-83
2023/12/02 09:32:18;;;;;;;1.80;1.70;;;2.90;99.90;;;;;;4989831;28;20050;-83
2023/12/02 09:34:54;;;;;;;1.83;1.73;;;2.80;99.90;;;;;;5016579;28;20057;-83
2023/12/02 09:37:48;;;;;;;2.00;1.90;;;2.90;99.90;;;;;;5020312;28;20093;-83
2023/12/02 09:40:20;;;;;;;2.00;1.90;;;2.90;99.90;;;;;;5018666;28;20053;-83
2023/12/02 09:42:55;;;;;;;1.90;1.80;;;3.00;99.90;;;;;;4997011;28;20046;-83
2023/12/02 09:45:22;;;;;;;2.00;1.90;;;2.90;99.90;;;;;;5004707;28;20108;-83
2023/12/02 09:48:05;;;;;;;2.05;1.95;;;2.90;99.90;;;;;;4999566;28;20147;-84
2023/12/02 09:51:08;;;;;;;2.10;2.00;;;3.00;99.90;;;;;;4998051;28;20510;-83
2023/12/02 09:53:40;;;;;;;1.92;1.83;;;2.90;99.90;;;;;;4993195;28;20057;-82
2023/12/02 09:56:19;;;;;;;1.90;1.80;;;2.90;99.90;;;;;;5024407;28;20037;-83
2023/12/02 09:58:46;;;;;;;2.00;1.90;;;3.00;99.90;;;;;;5002447;28;20510;-83
2023/12/02 10:01:32;;;;;;;2.00;1.90;;;3.00;99.90;;;;;;4995350;28;20136;-83
2023/12/02 10:04:02;;;;;;;2.00;1.90;;;2.90;99.90;;;;;;5018894;28;20057;-84
2023/12/02 10:06:47;;;;;;;2.10;2.00;;;2.80;99.90;;;;;;4991496;28;20053;-83
2023/12/02 10:10:04;;;;;;;1.95;1.85;;;2.80;99.90;;;;;;4999531;28;20398;-83
2023/12/02 10:13:00;;;;;;;1.90;1.80;;;3.00;99.90;;;;;;4972284;28;20486;-83
2023/12/02 10:15:28;;;;;;;2.00;1.90;;;3.00;99.90;;;;;;4970653;28;20137;-84
2023/12/02 10:18:17;;;;;;;1.90;1.80;;;3.00;99.90;;;;;;4994814;28;20089;-80
2023/12/02 10:20:43;;;;;;;2.08;1.98;;;3.00;99.90;;;;;;5025484;28;20495;-80
2023/12/02 10:23:36;;;;;;;2.10;2.00;;;3.00;99.90;;;;;;5001623;28;20057;-80
2023/12/02 10:26:12;;;;;;;2.00;1.90;;;3.00;99.90;;;;;;5017824;28;20053;-79
2023/12/02 10:29:13;;;;;;;1.90;1.80;;;3.10;99.90;;;;;;5002522;28;20056;-82
2023/12/02 10:31:56;;;;;;;1.90;1.80;;;3.10;99.90;;;;;;4909319;29;20098;-82
2023/12/02 10:34:31;;;;;;;1.90;1.80;;;3.20;99.90;;;;;;4986687;28;20525;-83
2023/12/02 10:36:59;;;;;;;2.10;2.00;;;3.30;99.90;;;;;;5002943;28;20918;-83
2023/12/02 10:39:50;;;;;;;2.10;2.00;;;3.30;99.90;;;;;;5002082;28;20045;-82
2023/12/02 10:42:19;;;;;;;2.10;2.00;;;3.50;99.90;;;;;;4988512;28;20052;-86
2023/12/02 10:44:47;;;;;;;2.15;2.05;;;3.50;99.90;;;;;;5003104;28;20798;-84
2023/12/02 10:47:14;;;;;;;2.10;2.00;;;3.40;99.90;;;;;;4994362;28;20416;-82
2023/12/02 10:49:40;;;;;;;2.22;2.13;;;3.40;99.90;;;;;;4987881;28;20177;-83
2023/12/02 10:52:10;;;;;;;2.22;2.13;;;3.40;99.90;;;;;;5003987;28;20046;-82
2023/12/02 10:54:40;;;;;;;2.20;2.10;;;3.50;99.90;;;;;;4989209;28;20056;-83
2023/12/02 10:57:08;;;;;;;2.13;2.03;;;3.40;99.90;;;;;;4990415;28;20414;-82
2023/12/02 10:59:40;;;;;;;2.03;1.92;;;3.60;99.90;;;;;;4991978;28;20061;-83
2023/12/02 11:02:34;;;;;;;2.10;2.00;;;3.50;99.90;;;;;;4999726;28;20272;-83
2023/12/02 11:05:23;;;;;;;2.13;2.03;;;3.70;99.90;;;;;;4993855;28;20049;-82
2023/12/02 11:08:00;;;;;;;1.95;1.85;;;3.60;99.90;;;;;;4993300;28;20058;-83
2023/12/02 11:10:32;;;;;;;2.03;1.92;;;3.60;99.90;;;;;;4988723;28;20085;-82
2023/12/02 11:13:03;;;;;;;2.03;1.92;;;3.70;99.90;;;;;;5003815;28;20064;-82
2023/12/02 11:15:32;;;;;;;2.00;1.90;;;3.70;99.90;;;;;;4990093;28;20042;-83
2023/12/02 11:18:04;;;;;;;2.00;1.90;;;3.70;99.90;;;;;;4988047;28;20054;-82
2023/12/02 11:20:37;;;;;;;2.10;2.00;;;3.70;99.90;;;;;;5014655;28;20407;-82
2023/12/02 11:23:28;;;;;;;2.20;2.10;;;3.70;99.90;;;;;;5003857;28;20049;-82
2023/12/02 11:25:57;;;;;;;2.10;2.00;;;3.70;99.90;;;;;;4984643;28;20488;-81
2023/12/02 11:28:45;;;;;;;2.20;2.10;;;3.70;99.90;;;;;;5025520;28;20072;-80
2023/12/02 11:31:33;;;;;;;2.20;2.10;;;3.80;99.90;;;;;;4996337;28;20062;-80
2023/12/02 11:34:17;;;;;;;2.10;2.00;;;3.90;99.90;;;;;;5011007;28;20069;-81
2023/12/02 11:37:06;;;;;;;2.20;2.10;;;3.90;99.90;;;;;;5010075;28;20057;-82
2023/12/02 11:39:48;;;;;;;2.20;2.10;;;4.00;99.90;;;;;;4974197;28;20161;-82
2023/12/02 11:42:17;;;;;;;2.10;2.00;;;4.00;99.90;;;;;;4994935;28;20063;-83
2023/12/02 11:45:06;;;;;;;2.10;2.00;;;3.90;99.90;;;;;;4993040;28;20057;-82
2023/12/02 11:47:35;;;;;;;2.17;2.08;;;4.00;99.90;;;;;;4997649;28;20057;-82
2023/12/02 11:50:15;;;;;;;2.08;1.98;;;4.10;99.90;;;;;;4996738;28;20484;-82
2023/12/02 11:53:08;;;;;;;2.28;2.17;;;4.20;99.90;;;;;;5015179;28;20049;-83
2023/12/02 11:56:10;;;;;;;2.40;2.30;;;4.10;99.90;;;;;;4994571;28;20050;-82
2023/12/02 11:58:45;;;;;;;2.30;2.20;;;4.20;99.90;;;;;;5012901;28;20430;-82
2023/12/02 12:01:49;;;;;;;2.13;2.03;;;4.10;99.90;;;;;;5023178;28;20055;-83
2023/12/02 12:04:40;;;;;;;2.15;2.05;;;4.00;99.90;;;;;;5004393;28;20064;-82
2023/12/02 12:07:35;;;;;;;2.15;2.05;;;4.10;99.90;;;;;;5006360;28;20053;-83
2023/12/02 12:10:19;;;;;;;2.17;2.08;;;4.30;99.90;;;;;;5019327;28;20112;-83
2023/12/02 12:12:47;;;;;;;2.13;2.03;;;4.30;99.90;;;;;;5000353;28;20540;-83
2023/12/02 12:15:13;;;;;;;2.22;2.13;;;4.40;99.90;;;;;;5002011;28;20152;-83
2023/12/02 12:17:39;;;;;;;1.95;1.85;;;4.50;99.90;;;;;;4997824;28;20539;-83
2023/12/02 12:20:20;;;;;;;1.90;1.80;;;4.60;99.90;;;;;;5001864;28;20045;-84
2023/12/02 12:22:46;;;;;;;2.05;1.95;;;4.60;99.90;;;;;;4991547;28;20488;-83
2023/12/02 12:25:12;;;;;;;2.03;1.92;;;4.70;99.90;;;;;;5010692;28;20060;-84
2023/12/02 12:27:39;;;;;;;2.22;2.13;;;4.70;99.90;;;;;;5002415;28;20095;-84
2023/12/02 12:30:05;;;;;;;2.15;2.05;;;4.60;99.90;;;;;;5015436;28;20112;-85
2023/12/02 12:32:31;;;;;;;2.30;2.20;;;4.60;99.90;;;;;;4990326;28;20057;-84
2023/12/02 12:34:57;;;;;;;2.20;2.10;;;4.60;99.90;;;;;;5017198;28;20050;-84
2023/12/02 12:37:27;;;;;;;1.90;1.80;;;4.60;99.90;;;;;;4998746;28;20566;-84
2023/12/02 12:39:53;;;;;;;2.13;2.03;;;4.50;99.90;;;;;;4993310;28;20065;-85
2023/12/02 12:42:22;;;;;;;2.20;2.10;;;4.60;99.90;;;;;;5012713;28;20049;-86
2023/12/02 12:44:47;;;;;;;2.13;2.03;;;4.70;99.90;;;;;;5020891;28;20049;-85
2023/12/02 12:47:14;;;;;;;2.15;2.05;;;4.70;99.90;;;;;;5011007;28;20465;-86
2023/12/02 12:49:41;;;;;;;2.20;2.10;;;4.70;99.90;;;;;;5010937;28;20037;-85
2023/12/02 12:52:10;;;;;;;2.20;2.10;;;4.60;99.90;;;;;;4999014;28;20479;-84
2023/12/02 12:54:53;;;;;;;1.90;1.80;;;4.60;99.90;;;;;;5006726;28;20679;-85
2023/12/02 12:57:40;;;;;;;2.10;2.00;;;4.60;99.90;;;;;;4996479;28;20053;-85
2023/12/02 13:00:10;;;;;;;2.25;2.15;;;4.60;99.90;;;;;;5024112;28;20052;-85
2023/12/02 13:02:57;;;;;;;2.20;2.10;;;4.60;99.90;;;;;;4994643;28;20053;-84
2023/12/02 13:05:49;;;;;;;2.05;1.95;;;4.50;99.90;;;;;;5018684;28;20098;-84
2023/12/02 13:08:29;;;;;;;2.13;2.03;;;4.60;99.90;;;;;;5008617;28;20049;-85
2023/12/02 13:11:05;;;;;;;2.00;1.90;;;4.70;99.90;;;;;;5021772;28;20055;-85